Latest Coastal Weather Observations for Sydney Harbour

IDN60701

Issued at 2:45 pm EDT Saturday 29 November 2014 (issued every 10 minutes, with the page automatically refreshed every 10 minutes)

About coastal observations | Map of coastal stations | Coastal observations for NSW | Marine services | Other Formats
Station Details ID: 066196 Name: WEDDING CAKE WEST Lat: -33.84 Lon: 151.26 Height: 6.0 m
Data from the previous 72 hours. | See also: Recent months for locations in New South Wales
Date/Time
EDT
Temp

°C
Wind Pressure Rain
since 9am
mm
Weather Cloud Vis
km
Sea
Height
m
Swell
Dir
 
Speed
knots
Gust
knots
hPa Trend Height
m
Period
s
Dir
29/02:30pm 21.2 NE 17 20 - - - - - - - - - -
29/02:00pm 21.0 ENE 16 17 - - - - - - - - - -
29/01:30pm 21.1 ENE 15 17 - - - - - - - - - -
29/01:00pm 20.8 ENE 12 14 - - - - - - - - - -
29/12:30pm 20.9 ENE 13 16 - - - - - - - - - -
29/12:00pm 20.7 ENE 15 17 - - - - - - - - - -
29/11:30am 20.7 ENE 14 17 - - - - - - - - - -
29/11:00am 20.6 ENE 12 14 - - - - - - - - - -
29/10:30am 21.0 ENE 10 11 - - - - - - - - - -
29/10:00am 22.3 ESE 5 7 - - - - - - - - - -
29/09:30am 20.8 SSW 5 8 - - - - - - - - - -
29/09:00am 20.1 SW 4 5 - - - - - - - - - -
29/08:30am 19.7 SW 7 8 - - - - - - - - - -
29/08:00am 19.7 SW 3 4 - - - - - - - - - -
29/07:30am 19.1 WSW 5 6 - - - - - - - - - -
29/07:00am 18.8 CALM 0 0 - - - - - - - - - -
29/06:30am 18.4 W 3 4 - - - - - - - - - -
29/06:00am 18.0 W 5 6 - - - - - - - - - -
29/05:30am 18.4 W 5 6 - - - - - - - - - -
29/05:00am 18.3 W 6 7 - - - - - - - - - -
29/04:30am 18.3 W 5 8 - - - - - - - - - -
29/04:00am 18.4 SW 4 5 - - - - - - - - - -
29/03:30am 19.0 CALM 0 2 - - - - - - - - - -
29/03:00am 19.3 N 4 5 - - - - - - - - - -
29/02:30am 19.7 N 5 6 - - - - - - - - - -
29/02:00am 20.2 N 9 10 - - - - - - - - - -
29/01:30am 20.4 NNE 10 12 - - - - - - - - - -
29/01:00am 20.4 NNE 12 15 - - - - - - - - - -
29/12:30am 20.2 NNE 12 14 - - - - - - - - - -
29/12:00am 20.4 NE 11 14 - - - - - - - - - -
 
Date/Time
EDT
Temp

°C
Wind Pressure Rain
since 9am
mm
Weather Cloud Vis
km
Sea
Height
m
Swell
Dir
 
Speed
knots
Gust
knots
hPa Trend Height
m
Period
s
Dir
28/11:30pm 20.3 NE 12 15 - - - - - - - - - -
28/11:00pm 20.4 NE 13 16 - - - - - - - - - -
28/10:30pm 20.1 NE 12 14 - - - - - - - - - -
28/10:00pm 20.2 NE 14 16 - - - - - - - - - -
28/09:30pm 20.2 NE 14 17 - - - - - - - - - -
28/09:00pm 19.9 NE 14 18 - - - - - - - - - -
28/08:30pm 19.9 NE 14 17 - - - - - - - - - -
28/08:00pm 19.9 NE 15 19 - - - - - - - - - -
28/07:30pm 19.9 NE 17 20 - - - - - - - - - -
28/07:00pm 20.0 NE 15 18 - - - - - - - - - -
28/06:30pm 20.0 NE 16 18 - - - - - - - - - -
28/06:00pm 19.9 NE 15 19 - - - - - - - - - -
28/05:30pm 20.0 NE 14 17 - - - - - - - - - -
28/05:00pm 19.9 NE 13 16 - - - - - - - - - -
28/04:30pm 19.9 ENE 13 15 - - - - - - - - - -
28/04:00pm 19.8 ENE 12 14 - - - - - - - - - -
28/03:30pm 19.9 ENE 11 13 - - - - - - - - - -
28/03:00pm 19.9 ENE 10 13 - - - - - - - - - -
28/02:30pm 20.0 ENE 10 13 - - - - - - - - - -
28/02:00pm 20.0 ENE 10 13 - - - - - - - - - -
28/01:30pm 20.2 E 9 14 - - - - - - - - - -
28/01:00pm 20.0 E 10 13 - - - - - - - - - -
28/12:30pm 20.4 E 11 13 - - - - - - - - - -
28/12:00pm 20.0 E 10 13 - - - - - - - - - -
28/11:30am 20.1 E 10 12 - - - - - - - - - -
28/11:00am 20.2 E 9 12 - - - - - - - - - -
28/10:30am 20.3 E 9 11 - - - - - - - - - -
28/10:00am 20.2 E 8 11 - - - - - - - - - -
28/09:30am 20.1 ESE 8 12 - - - - - - - - - -
28/09:00am 20.1 ESE 7 9 - - - - - - - - - -
28/08:30am 20.0 ESE 5 7 - - - - - - - - - -
28/08:00am 19.8 ESE 7 9 - - - - - - - - - -
28/07:30am 19.4 SE 6 8 - - - - - - - - - -
28/07:00am 19.1 SE 5 6 - - - - - - - - - -
28/06:30am 18.7 SSE 5 7 - - - - - - - - - -
28/06:00am 18.4 SSE 6 8 - - - - - - - - - -
28/05:30am 18.4 S 7 9 - - - - - - - - - -
28/05:00am 18.5 SSE 8 10 - - - - - - - - - -
28/04:30am 18.5 SSE 9 11 - - - - - - - - - -
28/04:00am 18.5 SSE 9 11 - - - - - - - - - -
28/03:30am 18.6 SSE 6 8 - - - - - - - - - -
28/03:00am 18.9 SSE 7 9 - - - - - - - - - -
28/02:30am 18.8 SSE 8 11 - - - - - - - - - -
28/02:00am 18.9 SSE 8 10 - - - - - - - - - -
28/01:30am 19.2 SE 10 12 - - - - - - - - - -
28/01:00am 19.4 SE 9 13 - - - - - - - - - -
28/12:30am 19.4 SE 9 11 - - - - - - - - - -
28/12:00am 19.5 SE 9 13 - - - - - - - - - -
 
Date/Time
EDT
Temp

°C
Wind Pressure Rain
since 9am
mm
Weather Cloud Vis
km
Sea
Height
m
Swell
Dir
 
Speed
knots
Gust
knots
hPa Trend Height
m
Period
s
Dir
27/11:30pm 19.4 SE 9 11 - - - - - - - - - -
27/11:00pm 19.4 SE 9 11 - - - - - - - - - -
27/10:30pm 19.4 SE 10 12 - - - - - - - - - -
27/10:00pm 19.5 SE 10 13 - - - - - - - - - -
27/09:30pm 19.4 SE 9 12 - - - - - - - - - -
27/09:00pm 19.3 SE 11 13 - - - - - - - - - -
27/08:30pm 19.3 SE 10 13 - - - - - - - - - -
27/08:00pm 19.3 SSE 9 12 - - - - - - - - - -
27/07:30pm 19.3 SSE 11 14 - - - - - - - - - -
27/07:00pm 19.3 SE 11 14 - - - - - - - - - -
27/06:30pm 19.1 SSE 11 15 - - - - - - - - - -
27/06:00pm 19.1 SSE 10 15 - - - - - - - - - -
27/05:30pm 19.1 SSE 11 16 - - - - - - - - - -
27/05:00pm 19.5 SE 9 13 - - - - - - - - - -
27/04:30pm 19.3 SSE 10 13 - - - - - - - - - -
27/04:00pm 19.3 SSE 11 14 - - - - - - - - - -
27/03:30pm 19.4 SSE 11 14 - - - - - - - - - -
27/03:00pm 19.7 SE 12 15 - - - - - - - - - -
27/02:30pm 19.5 SSE 12 17 - - - - - - - - - -
27/02:00pm 19.5 SSE 12 16 - - - - - - - - - -
27/01:30pm 19.4 SSE 12 19 - - - - - - - - - -
27/01:00pm 19.2 SSE 14 18 - - - - - - - - - -
27/12:30pm 19.3 SSE 12 15 - - - - - - - - - -
27/12:00pm 19.3 SSE 14 18 - - - - - - - - - -
27/11:30am 19.2 SSE 13 17 - - - - - - - - - -
27/11:00am 19.4 SSE 14 19 - - - - - - - - - -
27/10:30am 19.4 SSE 14 18 - - - - - - - - - -
27/10:00am 19.1 SSE 14 19 - - - - - - - - - -
27/09:30am 18.9 S 14 17 - - - - - - - - - -
27/09:00am 19.8 SSE 14 22 - - - - - - - - - -
27/08:30am 19.9 SSE 15 22 - - - - - - - - - -
27/08:00am 19.9 SSE 16 21 - - - - - - - - - -
27/07:30am 20.0 SSE 15 25 - - - - - - - - - -
27/07:28am 20.0 SSE 15 25 - - - - - - - - - -
27/07:00am 20.1 SE 16 21 - - - - - - - - - -
27/06:30am 19.9 SE 17 22 - - - - - - - - - -
27/06:00am 19.6 SE 17 22 - - - - - - - - - -
27/05:30am 19.7 SE 17 24 - - - - - - - - - -
27/05:00am 19.9 SE 18 22 - - - - - - - - - -
27/04:30am 19.7 SE 16 21 - - - - - - - - - -
27/04:16am 20.1 SE 15 17 - - - - - - - - - -
27/04:00am 20.6 SSE 5 7 - - - - - - - - - -
27/03:30am 20.5 SSE 6 7 - - - - - - - - - -
27/03:00am 20.7 SE 5 6 - - - - - - - - - -
27/02:30am 20.7 SE 6 8 - - - - - - - - - -
27/02:00am 20.8 SE 7 8 - - - - - - - - - -
27/01:30am 20.8 SE 7 9 - - - - - - - - - -
27/01:00am 21.0 SE 8 10 - - - - - - - - - -
27/12:30am 21.0 ESE 7 9 - - - - - - - - - -
27/12:00am 21.0 E 7 9 - - - - - - - - - -
 
Date/Time
EDT
Temp

°C
Wind Pressure Rain
since 9am
mm
Weather Cloud Vis
km
Sea
Height
m
Swell
Dir
 
Speed
knots
Gust
knots
hPa Trend Height
m
Period
s
Dir
26/11:30pm 21.1 E 9 12 - - - - - - - - - -
26/11:00pm 21.2 E 10 12 - - - - - - - - - -
26/10:30pm 21.2 E 7 8 - - - - - - - - - -
26/10:00pm 21.2 E 9 11 - - - - - - - - - -
26/09:30pm 21.3 E 10 12 - - - - - - - - - -
26/09:00pm 21.3 E 9 12 - - - - - - - - - -
26/08:30pm 21.3 ENE 12 14 - - - - - - - - - -
26/08:00pm 21.3 NE 13 16 - - - - - - - - - -
26/07:30pm 21.4 NE 15 17 - - - - - - - - - -
26/07:00pm 21.3 NE 16 19 - - - - - - - - - -
26/06:30pm 21.3 NE 18 20 - - - - - - - - - -
26/06:00pm 21.4 NE 17 21 - - - - - - - - - -
26/05:30pm 21.4 NE 16 20 - - - - - - - - - -
26/05:00pm 21.4 NE 18 21 - - - - - - - - - -
26/04:30pm 21.5 NE 17 21 - - - - - - - - - -
26/04:00pm 21.0 ENE 14 16 - - - - - - - - - -
26/03:30pm 20.9 ENE 14 16 - - - - - - - - - -
26/03:00pm 20.7 ENE 15 19 - - - - - - - - - -

Other Formats:

Comma delimited format used in spreadsheet applications
http://www.bom.gov.au/fwo/IDN60701/IDN60701.95766.axf

JavaScript Object Notation format (JSON) in row-major order
http://www.bom.gov.au/fwo/IDN60701/IDN60701.95766.json